LIC0015 LIMJ-LEXJ
Flight info
| Callsign | LIC0015 |
|---|---|
| Flight time | 1h 33m |
| Altitude | 38000 |
| Route | LAGEN DCT RONOP DCT GIGUS DCT RUSIT UY305 ESIDA DCT LERGA DCT MINSO DCT NARAK DCT AGN DCT DIGPO DCT ERAKI N976 PPN M601 BLV |
| Aircraft | A320/M-SDE3FGHIRWY/LB1 |
Departure
| Time | 2026-04-26 07:51 |
|---|---|
| Airport | Genoa Cristoforo Colombo Airport (LIMJ) |
Arrival
| Time | 2026-04-26 09:25 |
|---|---|
| Airport | Seve Ballesteros-Santander Airport (LEXJ) |
| Time | Latitude | Longitude | Altitude | Speed | Heading |
|---|---|---|---|---|---|
| 2026-04-26 07:43 | 44.41250 | 8.85227 | 10 ft | 0 kts | 195° |
| 2026-04-26 07:49 | 44.41244 | 8.85227 | 10 ft | 4 kts | 183° |
| 2026-04-26 07:49 | 44.41214 | 8.85249 | 10 ft | 5 kts | 152° |
| 2026-04-26 07:50 | 44.41117 | 8.85251 | 9 ft | 8 kts | 188° |
| 2026-04-26 07:50 | 44.41060 | 8.85228 | 8 ft | 11 kts | 201° |
| 2026-04-26 07:50 | 44.41007 | 8.85174 | 6 ft | 8 kts | 248° |
| 2026-04-26 07:50 | 44.41009 | 8.85145 | 6 ft | 1 kts | 283° |
| 2026-04-26 07:51 | 44.41055 | 8.84893 | 11 ft | 68 kts | 285° |
| 2026-04-26 07:51 | 44.41247 | 8.83908 | 13 ft | 138 kts | 284° |
| 2026-04-26 07:51 | 44.41516 | 8.82469 | 467 ft | 159 kts | 283° |
| 2026-04-26 07:51 | 44.41738 | 8.80973 | 1320 ft | 156 kts | 267° |
| 2026-04-26 07:52 | 44.41459 | 8.79514 | 2064 ft | 161 kts | 235° |
| 2026-04-26 07:52 | 44.40611 | 8.78403 | 2515 ft | 180 kts | 203° |
| 2026-04-26 07:52 | 44.39328 | 8.77962 | 3049 ft | 202 kts | 191° |
| 2026-04-26 07:52 | 44.38035 | 8.76967 | 3596 ft | 230 kts | 229° |
| 2026-04-26 07:53 | 44.37411 | 8.74807 | 4174 ft | 257 kts | 266° |
| 2026-04-26 07:53 | 44.37520 | 8.72237 | 4976 ft | 270 kts | 280° |
| 2026-04-26 07:53 | 44.37877 | 8.69625 | 6003 ft | 276 kts | 283° |
| 2026-04-26 07:53 | 44.38251 | 8.66977 | 7045 ft | 280 kts | 281° |
| 2026-04-26 07:54 | 44.38569 | 8.64269 | 8070 ft | 284 kts | 279° |
| 2026-04-26 07:54 | 44.38821 | 8.61494 | 9051 ft | 290 kts | 277° |
| 2026-04-26 07:54 | 44.39015 | 8.58691 | 10036 ft | 295 kts | 276° |
| 2026-04-26 07:54 | 44.39176 | 8.55766 | 10684 ft | 312 kts | 276° |
| 2026-04-26 07:55 | 44.39437 | 8.52647 | 11088 ft | 333 kts | 284° |
| 2026-04-26 07:55 | 44.40154 | 8.49523 | 11808 ft | 340 kts | 295° |
| 2026-04-26 07:55 | 44.41346 | 8.46646 | 12686 ft | 343 kts | 308° |
| 2026-04-26 07:55 | 44.42872 | 8.44063 | 13596 ft | 346 kts | 312° |
| 2026-04-26 07:56 | 44.44436 | 8.41480 | 14453 ft | 349 kts | 311° |
| 2026-04-26 07:56 | 44.46014 | 8.38873 | 15277 ft | 351 kts | 312° |
| 2026-04-26 07:56 | 44.47601 | 8.36249 | 16085 ft | 354 kts | 311° |
| 2026-04-26 07:56 | 44.49198 | 8.33597 | 16849 ft | 358 kts | 311° |
| 2026-04-26 07:57 | 44.50815 | 8.30899 | 17544 ft | 364 kts | 311° |
| 2026-04-26 07:57 | 44.52457 | 8.28156 | 18241 ft | 370 kts | 310° |
| 2026-04-26 07:57 | 44.54122 | 8.25380 | 18922 ft | 373 kts | 310° |
| 2026-04-26 07:57 | 44.55799 | 8.22580 | 19581 ft | 376 kts | 310° |
| 2026-04-26 07:58 | 44.57492 | 8.19748 | 20244 ft | 379 kts | 310° |
| 2026-04-26 07:58 | 44.59193 | 8.16900 | 20910 ft | 382 kts | 310° |
| 2026-04-26 07:58 | 44.60904 | 8.14030 | 21550 ft | 385 kts | 309° |
| 2026-04-26 07:58 | 44.62624 | 8.11138 | 22191 ft | 387 kts | 309° |
| 2026-04-26 07:59 | 44.64358 | 8.08224 | 22825 ft | 390 kts | 309° |
| 2026-04-26 07:59 | 44.66087 | 8.05323 | 23451 ft | 393 kts | 309° |
| 2026-04-26 07:59 | 44.67847 | 8.02366 | 24000 ft | 396 kts | 309° |
| 2026-04-26 07:59 | 44.69639 | 7.99348 | 24500 ft | 398 kts | 309° |
| 2026-04-26 08:00 | 44.71403 | 7.96375 | 24989 ft | 401 kts | 309° |
| 2026-04-26 08:00 | 44.73204 | 7.93337 | 25456 ft | 405 kts | 309° |
| 2026-04-26 08:00 | 44.75011 | 7.90284 | 25929 ft | 408 kts | 309° |
| 2026-04-26 08:00 | 44.76826 | 7.87210 | 26401 ft | 410 kts | 309° |
| 2026-04-26 08:01 | 44.78659 | 7.84100 | 26860 ft | 413 kts | 309° |
| 2026-04-26 08:01 | 44.80505 | 7.80973 | 27313 ft | 416 kts | 309° |
| 2026-04-26 08:01 | 44.82361 | 7.77831 | 27778 ft | 419 kts | 309° |
| 2026-04-26 08:01 | 44.84232 | 7.74659 | 28233 ft | 422 kts | 309° |
| 2026-04-26 08:02 | 44.86108 | 7.71470 | 28682 ft | 424 kts | 308° |
| 2026-04-26 08:02 | 44.87999 | 7.68241 | 29123 ft | 427 kts | 308° |
| 2026-04-26 08:02 | 44.89898 | 7.64996 | 29552 ft | 430 kts | 308° |
| 2026-04-26 08:02 | 44.91808 | 7.61734 | 29977 ft | 432 kts | 308° |
| 2026-04-26 08:03 | 44.93730 | 7.58448 | 30354 ft | 435 kts | 308° |
| 2026-04-26 08:03 | 44.95655 | 7.55153 | 30702 ft | 437 kts | 308° |
| 2026-04-26 08:03 | 44.97594 | 7.51832 | 31060 ft | 438 kts | 308° |
| 2026-04-26 08:03 | 44.99544 | 7.48491 | 31394 ft | 440 kts | 308° |
| 2026-04-26 08:04 | 45.01494 | 7.45151 | 31845 ft | 442 kts | 308° |
| 2026-04-26 08:04 | 45.03449 | 7.41793 | 32252 ft | 442 kts | 308° |
| 2026-04-26 08:04 | 45.05400 | 7.38439 | 32750 ft | 440 kts | 308° |
| 2026-04-26 08:04 | 45.07341 | 7.35104 | 33216 ft | 438 kts | 308° |
| 2026-04-26 08:05 | 45.09268 | 7.31785 | 33704 ft | 436 kts | 308° |
| 2026-04-26 08:05 | 45.11193 | 7.28462 | 34211 ft | 434 kts | 308° |
| 2026-04-26 08:05 | 45.13099 | 7.25158 | 34640 ft | 433 kts | 308° |
| 2026-04-26 08:05 | 45.15001 | 7.21862 | 35050 ft | 432 kts | 308° |
| 2026-04-26 08:06 | 45.16874 | 7.18608 | 35428 ft | 431 kts | 307° |
| 2026-04-26 08:06 | 45.18570 | 7.15101 | 35745 ft | 429 kts | 298° |
| 2026-04-26 08:06 | 45.19853 | 7.11296 | 36073 ft | 428 kts | 291° |
| 2026-04-26 08:06 | 45.20972 | 7.07387 | 36408 ft | 427 kts | 291° |
| 2026-04-26 08:07 | 45.22092 | 7.03490 | 36747 ft | 427 kts | 291° |
| 2026-04-26 08:07 | 45.23215 | 6.99587 | 37097 ft | 426 kts | 291° |
| 2026-04-26 08:07 | 45.24332 | 6.95701 | 37434 ft | 425 kts | 291° |
| 2026-04-26 08:07 | 45.25448 | 6.91809 | 37795 ft | 424 kts | 291° |
| 2026-04-26 08:08 | 45.26560 | 6.87927 | 38108 ft | 424 kts | 291° |
| 2026-04-26 08:08 | 45.27687 | 6.83990 | 38184 ft | 424 kts | 291° |
| 2026-04-26 08:08 | 45.29891 | 6.76288 | 38175 ft | 423 kts | 291° |
| 2026-04-26 08:09 | 45.32102 | 6.68532 | 38184 ft | 423 kts | 290° |
| 2026-04-26 08:09 | 45.34310 | 6.60753 | 38180 ft | 423 kts | 290° |
| 2026-04-26 08:10 | 45.36503 | 6.52982 | 38177 ft | 423 kts | 290° |
| 2026-04-26 08:10 | 45.38692 | 6.45189 | 38171 ft | 423 kts | 289° |
| 2026-04-26 08:11 | 45.40301 | 6.37144 | 38201 ft | 423 kts | 284° |
| 2026-04-26 08:11 | 45.41802 | 6.29053 | 38185 ft | 423 kts | 284° |
| 2026-04-26 08:12 | 45.43298 | 6.20960 | 38180 ft | 422 kts | 284° |
| 2026-04-26 08:12 | 45.44788 | 6.12855 | 38183 ft | 423 kts | 284° |
| 2026-04-26 08:13 | 45.46279 | 6.04738 | 38186 ft | 423 kts | 284° |
| 2026-04-26 08:13 | 45.47758 | 5.96671 | 38186 ft | 423 kts | 284° |
| 2026-04-26 08:14 | 45.49238 | 5.88543 | 38190 ft | 424 kts | 283° |
| 2026-04-26 08:14 | 45.50709 | 5.80388 | 38194 ft | 424 kts | 284° |
| 2026-04-26 08:15 | 45.52178 | 5.72232 | 38192 ft | 424 kts | 284° |
| 2026-04-26 08:15 | 45.53644 | 5.64083 | 38199 ft | 424 kts | 284° |
| 2026-04-26 08:16 | 45.55105 | 5.55926 | 38196 ft | 424 kts | 283° |
| 2026-04-26 08:16 | 45.56550 | 5.47806 | 38205 ft | 424 kts | 283° |
| 2026-04-26 08:17 | 45.58000 | 5.39639 | 38195 ft | 424 kts | 283° |
| 2026-04-26 08:17 | 45.59440 | 5.31461 | 38204 ft | 424 kts | 283° |
| 2026-04-26 08:18 | 45.60873 | 5.23276 | 38201 ft | 424 kts | 283° |
| 2026-04-26 08:18 | 45.62305 | 5.15097 | 38197 ft | 424 kts | 283° |
| 2026-04-26 08:19 | 45.63730 | 5.06906 | 38193 ft | 424 kts | 283° |
| 2026-04-26 08:19 | 45.64909 | 5.00085 | 38188 ft | 424 kts | 283° |
| 2026-04-26 08:20 | 45.65778 | 4.90394 | 38186 ft | 424 kts | 266° |
| 2026-04-26 08:20 | 45.64739 | 4.83503 | 38189 ft | 426 kts | 250° |
| 2026-04-26 08:21 | 45.62153 | 4.75877 | 38193 ft | 427 kts | 244° |
| 2026-04-26 08:21 | 45.59461 | 4.68305 | 38203 ft | 428 kts | 244° |
| 2026-04-26 08:22 | 45.56762 | 4.60730 | 38200 ft | 428 kts | 244° |
| 2026-04-26 08:22 | 45.54055 | 4.53147 | 38221 ft | 429 kts | 244° |
| 2026-04-26 08:23 | 45.51341 | 4.45557 | 38226 ft | 429 kts | 244° |
| 2026-04-26 08:23 | 45.48620 | 4.37957 | 38215 ft | 429 kts | 244° |
| 2026-04-26 08:24 | 45.45896 | 4.30379 | 38219 ft | 430 kts | 244° |
| 2026-04-26 08:24 | 45.43174 | 4.22854 | 38214 ft | 430 kts | 244° |
| 2026-04-26 08:25 | 45.40432 | 4.15281 | 38218 ft | 430 kts | 244° |
| 2026-04-26 08:25 | 45.37683 | 4.07712 | 38214 ft | 430 kts | 244° |
| 2026-04-26 08:26 | 45.34925 | 4.00132 | 38209 ft | 431 kts | 244° |
| 2026-04-26 08:26 | 45.32166 | 3.92574 | 38212 ft | 431 kts | 244° |
| 2026-04-26 08:27 | 45.29402 | 3.85022 | 38213 ft | 430 kts | 244° |
| 2026-04-26 08:27 | 45.26632 | 3.77477 | 38214 ft | 430 kts | 244° |
| 2026-04-26 08:28 | 45.23417 | 3.70305 | 38202 ft | 432 kts | 237° |
| 2026-04-26 08:28 | 45.19970 | 3.63306 | 38213 ft | 432 kts | 237° |
| 2026-04-26 08:29 | 45.16525 | 3.56323 | 38200 ft | 432 kts | 236° |
| 2026-04-26 08:29 | 45.13070 | 3.49342 | 38208 ft | 432 kts | 236° |
| 2026-04-26 08:30 | 45.09607 | 3.42362 | 38205 ft | 432 kts | 236° |
| 2026-04-26 08:30 | 45.06143 | 3.35410 | 38216 ft | 432 kts | 236° |
| 2026-04-26 08:31 | 45.02698 | 3.28501 | 38218 ft | 432 kts | 236° |
| 2026-04-26 08:31 | 44.99235 | 3.21558 | 38218 ft | 432 kts | 236° |
| 2026-04-26 08:32 | 44.95764 | 3.14625 | 38220 ft | 432 kts | 236° |
| 2026-04-26 08:32 | 44.92290 | 3.07709 | 38212 ft | 431 kts | 236° |
| 2026-04-26 08:33 | 44.88812 | 3.00811 | 38210 ft | 431 kts | 236° |
| 2026-04-26 08:33 | 44.85330 | 2.93896 | 38209 ft | 432 kts | 236° |
| 2026-04-26 08:34 | 44.81946 | 2.86898 | 38209 ft | 431 kts | 238° |
| 2026-04-26 08:34 | 44.78719 | 2.79764 | 38210 ft | 431 kts | 239° |
| 2026-04-26 08:35 | 44.75504 | 2.72633 | 38215 ft | 431 kts | 239° |
| 2026-04-26 08:35 | 44.72261 | 2.65587 | 38216 ft | 432 kts | 239° |
| 2026-04-26 08:36 | 44.68961 | 2.58520 | 38213 ft | 432 kts | 239° |
| 2026-04-26 08:36 | 44.65655 | 2.51431 | 38210 ft | 432 kts | 239° |
| 2026-04-26 08:37 | 44.62359 | 2.44374 | 38213 ft | 432 kts | 239° |
| 2026-04-26 08:37 | 44.59055 | 2.37309 | 38203 ft | 432 kts | 238° |
| 2026-04-26 08:38 | 44.55752 | 2.30258 | 38211 ft | 432 kts | 238° |
| 2026-04-26 08:38 | 44.52448 | 2.23213 | 38206 ft | 433 kts | 239° |
| 2026-04-26 08:39 | 44.49130 | 2.16165 | 38207 ft | 433 kts | 238° |
| 2026-04-26 08:39 | 44.45807 | 2.09126 | 38209 ft | 433 kts | 238° |
| 2026-04-26 08:40 | 44.42471 | 2.02093 | 38209 ft | 433 kts | 238° |
| 2026-04-26 08:40 | 44.39135 | 1.95056 | 38207 ft | 433 kts | 238° |
| 2026-04-26 08:41 | 44.35801 | 1.88026 | 38205 ft | 433 kts | 238° |
| 2026-04-26 08:41 | 44.32455 | 1.81004 | 38204 ft | 434 kts | 238° |
| 2026-04-26 08:42 | 44.29118 | 1.74040 | 38207 ft | 434 kts | 238° |
| 2026-04-26 08:42 | 44.25813 | 1.66924 | 38206 ft | 434 kts | 239° |
| 2026-04-26 08:43 | 44.22581 | 1.59803 | 38207 ft | 434 kts | 239° |
| 2026-04-26 08:43 | 44.19336 | 1.52696 | 38203 ft | 434 kts | 239° |
| 2026-04-26 08:44 | 44.16064 | 1.45606 | 38197 ft | 435 kts | 239° |
| 2026-04-26 08:44 | 44.12773 | 1.38529 | 38198 ft | 436 kts | 239° |
| 2026-04-26 08:45 | 44.09498 | 1.31486 | 38199 ft | 436 kts | 239° |
| 2026-04-26 08:45 | 44.06204 | 1.24392 | 38201 ft | 436 kts | 239° |
| 2026-04-26 08:46 | 44.02898 | 1.17298 | 38203 ft | 436 kts | 239° |
| 2026-04-26 08:46 | 43.99591 | 1.10234 | 38195 ft | 436 kts | 238° |
| 2026-04-26 08:47 | 43.96272 | 1.03159 | 38201 ft | 437 kts | 238° |
| 2026-04-26 08:47 | 43.92951 | 0.96092 | 38203 ft | 437 kts | 238° |
| 2026-04-26 08:48 | 43.89620 | 0.89017 | 38207 ft | 437 kts | 238° |
| 2026-04-26 08:48 | 43.85724 | 0.82512 | 38208 ft | 439 kts | 230° |
| 2026-04-26 08:49 | 43.81636 | 0.76199 | 38202 ft | 439 kts | 230° |
| 2026-04-26 08:49 | 43.77550 | 0.69897 | 38207 ft | 439 kts | 230° |
| 2026-04-26 08:50 | 43.73480 | 0.63596 | 38211 ft | 439 kts | 230° |
| 2026-04-26 08:50 | 43.69388 | 0.57297 | 38215 ft | 440 kts | 229° |
| 2026-04-26 08:51 | 43.63917 | 0.48947 | 38212 ft | 440 kts | 229° |
| 2026-04-26 08:52 | 43.59817 | 0.42682 | 38217 ft | 439 kts | 229° |
| 2026-04-26 08:52 | 43.55721 | 0.36425 | 38215 ft | 439 kts | 229° |
| 2026-04-26 08:53 | 43.51739 | 0.30049 | 38209 ft | 438 kts | 237° |
| 2026-04-26 08:53 | 43.48786 | 0.22726 | 38207 ft | 437 kts | 244° |
| 2026-04-26 08:54 | 43.45988 | 0.15297 | 38204 ft | 437 kts | 244° |
| 2026-04-26 08:54 | 43.43168 | 0.07856 | 38208 ft | 438 kts | 244° |
| 2026-04-26 08:55 | 43.40348 | 0.00438 | 38218 ft | 437 kts | 244° |
| 2026-04-26 08:55 | 43.37530 | -0.06959 | 38213 ft | 437 kts | 243° |
| 2026-04-26 08:56 | 43.34702 | -0.14370 | 38210 ft | 437 kts | 243° |
| 2026-04-26 08:56 | 43.31886 | -0.21731 | 38210 ft | 438 kts | 243° |
| 2026-04-26 08:57 | 43.29046 | -0.29141 | 38212 ft | 438 kts | 243° |
| 2026-04-26 08:57 | 43.26204 | -0.36540 | 38215 ft | 438 kts | 243° |
| 2026-04-26 08:58 | 43.23347 | -0.43931 | 38216 ft | 438 kts | 243° |
| 2026-04-26 08:58 | 43.20491 | -0.51312 | 38217 ft | 438 kts | 243° |
| 2026-04-26 08:59 | 43.17633 | -0.58695 | 38217 ft | 437 kts | 243° |
| 2026-04-26 08:59 | 43.14781 | -0.66047 | 38213 ft | 437 kts | 243° |
| 2026-04-26 09:00 | 43.11918 | -0.73398 | 38211 ft | 437 kts | 243° |
| 2026-04-26 09:00 | 43.09049 | -0.80734 | 38192 ft | 437 kts | 243° |
| 2026-04-26 09:00 | 43.07603 | -0.84418 | 37967 ft | 439 kts | 243° |
| 2026-04-26 09:01 | 43.06159 | -0.88093 | 37693 ft | 439 kts | 243° |
| 2026-04-26 09:01 | 43.04711 | -0.91777 | 37416 ft | 440 kts | 243° |
| 2026-04-26 09:01 | 43.03261 | -0.95468 | 37141 ft | 441 kts | 243° |
| 2026-04-26 09:01 | 43.01811 | -0.99162 | 36877 ft | 441 kts | 243° |
| 2026-04-26 09:02 | 43.00357 | -1.02857 | 36616 ft | 441 kts | 243° |
| 2026-04-26 09:02 | 42.98900 | -1.06546 | 36349 ft | 441 kts | 243° |
| 2026-04-26 09:02 | 42.97436 | -1.10239 | 36088 ft | 441 kts | 243° |
| 2026-04-26 09:02 | 42.95971 | -1.13924 | 35834 ft | 442 kts | 243° |
| 2026-04-26 09:03 | 42.94501 | -1.17618 | 35576 ft | 444 kts | 243° |
| 2026-04-26 09:03 | 42.93024 | -1.21331 | 35329 ft | 446 kts | 243° |
| 2026-04-26 09:03 | 42.91597 | -1.25094 | 35079 ft | 446 kts | 249° |
| 2026-04-26 09:03 | 42.90781 | -1.29155 | 34833 ft | 443 kts | 264° |
| 2026-04-26 09:04 | 42.90790 | -1.33334 | 34592 ft | 441 kts | 280° |
| 2026-04-26 09:04 | 42.91583 | -1.37366 | 34354 ft | 441 kts | 290° |
| 2026-04-26 09:04 | 42.92608 | -1.41329 | 34112 ft | 442 kts | 290° |
| 2026-04-26 09:04 | 42.93640 | -1.45293 | 33828 ft | 443 kts | 290° |
| 2026-04-26 09:05 | 42.94670 | -1.49253 | 33546 ft | 444 kts | 290° |
| 2026-04-26 09:05 | 42.95700 | -1.53224 | 33296 ft | 443 kts | 291° |
| 2026-04-26 09:05 | 42.96726 | -1.57196 | 33028 ft | 443 kts | 290° |
| 2026-04-26 09:05 | 42.97745 | -1.61166 | 32756 ft | 442 kts | 290° |
| 2026-04-26 09:06 | 42.98756 | -1.65125 | 32497 ft | 441 kts | 290° |
| 2026-04-26 09:06 | 42.99719 | -1.69081 | 32217 ft | 439 kts | 288° |
| 2026-04-26 09:06 | 43.00566 | -1.73076 | 31580 ft | 435 kts | 286° |
| 2026-04-26 09:06 | 43.01313 | -1.77062 | 30932 ft | 432 kts | 285° |
| 2026-04-26 09:07 | 43.02010 | -1.81053 | 30313 ft | 429 kts | 284° |
| 2026-04-26 09:07 | 43.02693 | -1.85015 | 29622 ft | 426 kts | 284° |
| 2026-04-26 09:07 | 43.03382 | -1.88927 | 29009 ft | 421 kts | 285° |
| 2026-04-26 09:07 | 43.04087 | -1.92794 | 28403 ft | 417 kts | 285° |
| 2026-04-26 09:08 | 43.04801 | -1.96612 | 27820 ft | 412 kts | 285° |
| 2026-04-26 09:08 | 43.05517 | -2.00394 | 27223 ft | 408 kts | 285° |
| 2026-04-26 09:08 | 43.06225 | -2.04129 | 26660 ft | 404 kts | 285° |
| 2026-04-26 09:08 | 43.06926 | -2.07845 | 26100 ft | 400 kts | 285° |
| 2026-04-26 09:09 | 43.07616 | -2.11513 | 25553 ft | 397 kts | 285° |
| 2026-04-26 09:09 | 43.08297 | -2.15152 | 25033 ft | 393 kts | 285° |
| 2026-04-26 09:09 | 43.08965 | -2.18759 | 24507 ft | 390 kts | 284° |
| 2026-04-26 09:09 | 43.09626 | -2.22338 | 24001 ft | 386 kts | 284° |
| 2026-04-26 09:10 | 43.10282 | -2.25902 | 23442 ft | 383 kts | 284° |
| 2026-04-26 09:10 | 43.10929 | -2.29420 | 22929 ft | 379 kts | 284° |
| 2026-04-26 09:10 | 43.11570 | -2.32898 | 22430 ft | 375 kts | 284° |
| 2026-04-26 09:10 | 43.12205 | -2.36342 | 21933 ft | 372 kts | 285° |
| 2026-04-26 09:11 | 43.12826 | -2.39718 | 21440 ft | 369 kts | 285° |
| 2026-04-26 09:11 | 43.13448 | -2.43109 | 20927 ft | 367 kts | 284° |
| 2026-04-26 09:11 | 43.14075 | -2.46529 | 20414 ft | 365 kts | 285° |
| 2026-04-26 09:11 | 43.14681 | -2.49852 | 19897 ft | 363 kts | 284° |
| 2026-04-26 09:12 | 43.15292 | -2.53210 | 19382 ft | 362 kts | 284° |
| 2026-04-26 09:12 | 43.15899 | -2.56561 | 18864 ft | 362 kts | 284° |
| 2026-04-26 09:12 | 43.16503 | -2.59903 | 18327 ft | 361 kts | 284° |
| 2026-04-26 09:12 | 43.17114 | -2.63284 | 17777 ft | 359 kts | 285° |
| 2026-04-26 09:13 | 43.17711 | -2.66597 | 17274 ft | 357 kts | 284° |
| 2026-04-26 09:13 | 43.18305 | -2.69884 | 16761 ft | 355 kts | 284° |
| 2026-04-26 09:13 | 43.18895 | -2.73157 | 16281 ft | 353 kts | 284° |
| 2026-04-26 09:13 | 43.19481 | -2.76412 | 15775 ft | 351 kts | 284° |
| 2026-04-26 09:14 | 43.20061 | -2.79644 | 15286 ft | 349 kts | 284° |
| 2026-04-26 09:14 | 43.20639 | -2.82868 | 14801 ft | 347 kts | 284° |
| 2026-04-26 09:14 | 43.21217 | -2.86085 | 14313 ft | 346 kts | 284° |
| 2026-04-26 09:14 | 43.21790 | -2.89284 | 13789 ft | 345 kts | 284° |
| 2026-04-26 09:15 | 43.22355 | -2.92462 | 13271 ft | 342 kts | 284° |
| 2026-04-26 09:15 | 43.22915 | -2.95617 | 12773 ft | 339 kts | 284° |
| 2026-04-26 09:15 | 43.23471 | -2.98747 | 12270 ft | 337 kts | 284° |
| 2026-04-26 09:15 | 43.24021 | -3.01861 | 11762 ft | 334 kts | 284° |
| 2026-04-26 09:16 | 43.24569 | -3.04952 | 11259 ft | 332 kts | 284° |
| 2026-04-26 09:16 | 43.25105 | -3.07976 | 10755 ft | 330 kts | 284° |
| 2026-04-26 09:16 | 43.25643 | -3.11016 | 10445 ft | 322 kts | 284° |
| 2026-04-26 09:16 | 43.26165 | -3.13972 | 10310 ft | 308 kts | 284° |
| 2026-04-26 09:17 | 43.26653 | -3.16735 | 10166 ft | 297 kts | 284° |
| 2026-04-26 09:17 | 43.26980 | -3.18586 | 9924 ft | 294 kts | 284° |
| 2026-04-26 09:17 | 43.27612 | -3.22201 | 9354 ft | 292 kts | 284° |
| 2026-04-26 09:17 | 43.28080 | -3.24902 | 8920 ft | 290 kts | 284° |
| 2026-04-26 09:18 | 43.28547 | -3.27591 | 8480 ft | 289 kts | 284° |
| 2026-04-26 09:18 | 43.29015 | -3.30269 | 8054 ft | 287 kts | 284° |
| 2026-04-26 09:18 | 43.29586 | -3.32886 | 7625 ft | 285 kts | 292° |
| 2026-04-26 09:18 | 43.30206 | -3.35467 | 7169 ft | 285 kts | 288° |
| 2026-04-26 09:19 | 43.30845 | -3.38097 | 6418 ft | 295 kts | 290° |
| 2026-04-26 09:19 | 43.31574 | -3.40776 | 5625 ft | 303 kts | 291° |
| 2026-04-26 09:19 | 43.32320 | -3.43483 | 5228 ft | 298 kts | 291° |
| 2026-04-26 09:19 | 43.33028 | -3.46088 | 5096 ft | 283 kts | 291° |
| 2026-04-26 09:20 | 43.33703 | -3.48577 | 4843 ft | 273 kts | 291° |
| 2026-04-26 09:20 | 43.34359 | -3.50996 | 4497 ft | 267 kts | 291° |
| 2026-04-26 09:20 | 43.35002 | -3.53370 | 4147 ft | 262 kts | 291° |
| 2026-04-26 09:20 | 43.35632 | -3.55698 | 3803 ft | 257 kts | 290° |
| 2026-04-26 09:21 | 43.36250 | -3.57984 | 3473 ft | 253 kts | 290° |
| 2026-04-26 09:21 | 43.36856 | -3.60228 | 3137 ft | 249 kts | 290° |
| 2026-04-26 09:21 | 43.37456 | -3.62450 | 2807 ft | 246 kts | 290° |
| 2026-04-26 09:21 | 43.38036 | -3.64601 | 2488 ft | 234 kts | 290° |
| 2026-04-26 09:22 | 43.38585 | -3.66641 | 2185 ft | 220 kts | 290° |
| 2026-04-26 09:22 | 43.39091 | -3.68520 | 1911 ft | 199 kts | 290° |
| 2026-04-26 09:22 | 43.39542 | -3.70198 | 1659 ft | 177 kts | 290° |
| 2026-04-26 09:22 | 43.39947 | -3.71702 | 1424 ft | 161 kts | 290° |
| 2026-04-26 09:23 | 43.40321 | -3.73097 | 1219 ft | 149 kts | 291° |
| 2026-04-26 09:23 | 43.40662 | -3.74368 | 1020 ft | 136 kts | 291° |
| 2026-04-26 09:23 | 43.40983 | -3.75565 | 838 ft | 132 kts | 291° |
| 2026-04-26 09:23 | 43.41197 | -3.76360 | 724 ft | 130 kts | 291° |
| 2026-04-26 09:24 | 43.41611 | -3.77903 | 485 ft | 130 kts | 290° |
| 2026-04-26 09:24 | 43.41925 | -3.79075 | 321 ft | 130 kts | 290° |
| 2026-04-26 09:24 | 43.42137 | -3.79867 | 208 ft | 130 kts | 290° |
| 2026-04-26 09:24 | 43.42448 | -3.81030 | 33 ft | 129 kts | 289° |
| 2026-04-26 09:25 | 43.42706 | -3.81996 | 22 ft | 69 kts | 290° |
| 2026-04-26 09:25 | 43.42779 | -3.82260 | 22 ft | 10 kts | 291° |
| 2026-04-26 09:25 | 43.42828 | -3.82443 | 20 ft | 24 kts | 289° |
| 2026-04-26 09:25 | 43.42886 | -3.82678 | 21 ft | 27 kts | 288° |
| 2026-04-26 09:26 | 43.42932 | -3.82912 | 19 ft | 22 kts | 271° |
| 2026-04-26 09:26 | 43.42875 | -3.83024 | 21 ft | 13 kts | 189° |
| 2026-04-26 09:26 | 43.42799 | -3.82949 | 21 ft | 16 kts | 122° |
| 2026-04-26 09:26 | 43.42756 | -3.82807 | 21 ft | 15 kts | 113° |
| 2026-04-26 09:27 | 43.42713 | -3.82659 | 20 ft | 18 kts | 110° |
| 2026-04-26 09:27 | 43.42667 | -3.82480 | 20 ft | 21 kts | 111° |
| 2026-04-26 09:27 | 43.42615 | -3.82319 | 20 ft | 16 kts | 141° |
| 2026-04-26 09:27 | 43.42502 | -3.82340 | 23 ft | 16 kts | 200° |
| 2026-04-26 09:28 | 43.42429 | -3.82412 | 20 ft | 10 kts | 215° |
| 2026-04-26 09:28 | 43.42422 | -3.82420 | 20 ft | 0 kts | 224° |